Terminal Aerodrome Forecast
Issued by NWS Atlanta, GA

Home | Current Version | Previous Version | Text Only | Print | Product List | Glossary On
Versions: 1 2 3 4 5 6 7 8 9 10 11 12 13 14 15 16 17 18 19 20 21 22 23 24 25 26 27 28 29 30 31 32 33 34 35 36 37
691
FTAK31 PAJN 110527
TAFAHN
TAF
PAHN 110527Z 1106/1206 30010KT P6SM -SNRA OVC040
      TEMPO 1106/1110 2SM -SNRA BR FEW010 OVC025
     FM111000 08010KT 6SM -RA BR BKN015 OVC035
     FM120000 VRB05KT P6SM VCSH SCT035 BKN060
      AMD LTD TO CLD VIS AND WIND=

USA.gov is the U.S. government's official web portal to all federal, state and local government web resources and services.